Time;durP1;ratioP1;P1;durP2;ratioP2;P2;SDS_P1;SDS_P2;PMS_P1;PMS_P2;Temp;Humidity;BMP_temperature;BMP_pressure;BME280_temperature;BME280_humidity;BME280_pressure;Samples;Min_cycle;Max_cycle;Signal;HPM_P1;HPM_P2
2021/11/19 00:00:39;;;;;;;12.63;7.25;;;;;;;;;;5039460;28;20107;-70
2021/11/19 00:03:05;;;;;;;10.85;7.03;;;;;;;;;;5045109;28;20029;-72
2021/11/19 00:05:31;;;;;;;11.50;6.93;;;;;;;;;;5041620;28;20025;-72
2021/11/19 00:07:57;;;;;;;16.70;7.28;;;;;;;;;;5040698;28;20175;-74
2021/11/19 00:10:23;;;;;;;13.20;6.78;;;;;;;;;;5046217;28;20034;-71
2021/11/19 00:12:50;;;;;;;13.02;7.05;;;;;;;;;;5044396;28;20064;-71
2021/11/19 00:15:16;;;;;;;13.30;7.15;;;;;;;;;;5044559;28;20029;-70
2021/11/19 00:17:42;;;;;;;11.52;7.30;;;;;;;;;;5045130;28;20503;-70
2021/11/19 00:20:11;;;;;;;11.73;7.05;;;;;;;;;;5043664;28;20128;-71
2021/11/19 00:22:37;;;;;;;12.35;6.43;;;;;;;;;;5041715;28;20030;-71
2021/11/19 00:25:03;;;;;;;10.43;5.18;;;;;;;;;;5045601;28;20043;-71
2021/11/19 00:27:29;;;;;;;11.48;6.50;;;;;;;;;;5044435;28;20061;-71
2021/11/19 00:29:57;;;;;;;11.45;7.13;;;;;;;;;;5040671;28;20063;-72
2021/11/19 00:32:22;;;;;;;10.65;5.93;;;;;;;;;;5024380;28;20409;-72
2021/11/19 00:34:48;;;;;;;11.95;6.95;;;;;;;;;;5023452;28;20033;-71
2021/11/19 00:37:16;;;;;;;11.73;6.28;;;;;;;;;;5043766;28;20041;-72
2021/11/19 00:39:42;;;;;;;12.77;4.70;;;;;;;;;;5022689;28;20037;-72
2021/11/19 00:42:09;;;;;;;11.30;6.97;;;;;;;;;;5000604;28;20048;-72
2021/11/19 00:44:35;;;;;;;12.73;5.82;;;;;;;;;;5003849;28;20127;-71
2021/11/19 00:47:01;;;;;;;14.77;7.22;;;;;;;;;;5024247;28;20032;-72
2021/11/19 00:49:30;;;;;;;8.68;5.63;;;;;;;;;;5008934;28;20074;-71
2021/11/19 00:51:58;;;;;;;9.43;5.85;;;;;;;;;;5024435;28;20382;-72
2021/11/19 00:54:24;;;;;;;6.80;4.03;;;;;;;;;;5029595;28;20026;-72
2021/11/19 00:56:52;;;;;;;12.38;6.82;;;;;;;;;;5009705;28;20042;-71
2021/11/19 00:59:19;;;;;;;8.73;5.45;;;;;;;;;;5012771;28;20064;-71
2021/11/19 01:01:47;;;;;;;12.38;7.00;;;;;;;;;;5009864;28;20025;-71
2021/11/19 01:04:13;;;;;;;11.20;6.18;;;;;;;;;;5010067;28;20022;-71
2021/11/19 01:06:40;;;;;;;11.23;7.40;;;;;;;;;;5007678;28;20087;-73
2021/11/19 01:09:09;;;;;;;10.80;6.20;;;;;;;;;;5010264;28;20041;-73
2021/11/19 01:11:35;;;;;;;13.02;6.63;;;;;;;;;;5010113;28;20034;-72
2021/11/19 01:14:01;;;;;;;9.27;5.85;;;;;;;;;;5010308;28;20030;-71
2021/11/19 01:16:29;;;;;;;9.18;5.85;;;;;;;;;;5007923;28;20049;-70
2021/11/19 01:18:57;;;;;;;9.48;5.28;;;;;;;;;;5003954;28;20430;-71
2021/11/19 01:21:28;;;;;;;12.05;6.38;;;;;;;;;;5008625;28;20040;-74
2021/11/19 01:23:55;;;;;;;11.20;6.38;;;;;;;;;;5006616;28;20030;-72
2021/11/19 01:26:26;;;;;;;7.90;4.28;;;;;;;;;;5008985;28;20361;-73
2021/11/19 01:28:51;;;;;;;;;;;;;;;;;;5027501;28;20511;-73
2021/11/19 01:31:23;;;;;;;10.10;5.80;;;;;;;;;;5007276;28;19944;-71
2021/11/19 01:33:53;;;;;;;9.95;6.32;;;;;;;;;;5007177;28;20116;-71
2021/11/19 01:36:36;;;;;;;9.38;5.22;;;;;;;;;;5008946;28;20102;-71
2021/11/19 01:39:10;;;;;;;9.55;5.18;;;;;;;;;;5015805;28;20049;-71
2021/11/19 01:41:57;;;;;;;5.60;3.92;;;;;;;;;;5035020;28;20036;-71
2021/11/19 01:44:30;;;;;;;8.88;6.15;;;;;;;;;;5035165;28;20366;-71
2021/11/19 01:46:57;;;;;;;9.20;5.53;;;;;;;;;;5017226;28;20068;-71
2021/11/19 01:49:24;;;;;;;6.60;5.25;;;;;;;;;;5017402;28;20460;-71
2021/11/19 01:52:05;;;;;;;10.68;6.60;;;;;;;;;;5035398;28;20131;-72
2021/11/19 01:54:37;;;;;;;5.18;3.13;;;;;;;;;;5013853;28;20493;-71
2021/11/19 01:57:14;;;;;;;8.52;5.25;;;;;;;;;;5015410;28;20401;-73
2021/11/19 01:59:43;;;;;;;10.32;6.43;;;;;;;;;;5017918;28;20042;-73
2021/11/19 02:02:12;;;;;;;1.73;1.63;;;;;;;;;;5017429;28;20017;-71
2021/11/19 02:04:39;;;;;;;8.02;5.80;;;;;;;;;;5016755;28;20083;-72
2021/11/19 02:07:17;;;;;;;8.15;5.20;;;;;;;;;;5017603;28;20041;-72
2021/11/19 02:10:23;;;;;;;8.68;5.13;;;;;;;;;;5010549;28;20025;-72
2021/11/19 02:13:09;;;;;;;9.40;5.07;;;;;;;;;;5017678;28;20528;-72
2021/11/19 02:15:39;;;;;;;9.13;5.45;;;;;;;;;;5014074;28;20033;-71
2021/11/19 02:18:10;;;;;;;6.10;4.03;;;;;;;;;;5017112;28;20079;-72
2021/11/19 02:20:38;;;;;;;9.93;6.00;;;;;;;;;;5017256;28;20099;-70
2021/11/19 02:23:10;;;;;;;6.68;4.75;;;;;;;;;;4998150;28;20121;-71
2021/11/19 02:25:41;;;;;;;4.80;3.08;;;;;;;;;;5034589;28;20040;-72
2021/11/19 02:28:09;;;;;;;8.18;5.80;;;;;;;;;;5032430;28;20042;-72
2021/11/19 02:30:46;;;;;;;6.32;4.00;;;;;;;;;;5016941;28;20495;-75
2021/11/19 02:33:13;;;;;;;10.57;6.25;;;;;;;;;;5015570;28;20547;-75
2021/11/19 02:35:54;;;;;;;9.25;5.80;;;;;;;;;;5017052;28;20031;-75
2021/11/19 02:38:39;;;;;;;7.65;4.97;;;;;;;;;;5016481;28;20470;-75
2021/11/19 02:41:06;;;;;;;10.13;6.05;;;;;;;;;;5008965;28;20120;-71
2021/11/19 02:43:34;;;;;;;10.02;6.25;;;;;;;;;;4999948;28;20025;-71
2021/11/19 02:45:59;;;;;;;7.93;6.45;;;;;;;;;;5034182;28;20072;-71
2021/11/19 02:48:27;;;;;;;6.85;6.03;;;;;;;;;;5016564;28;20045;-71
2021/11/19 02:50:54;;;;;;;6.28;5.35;;;;;;;;;;5015737;28;20045;-70
2021/11/19 02:53:20;;;;;;;8.13;5.80;;;;;;;;;;5016285;28;20039;-70
2021/11/19 02:55:48;;;;;;;5.70;3.28;;;;;;;;;;5016318;28;20033;-71
2021/11/19 02:58:16;;;;;;;7.75;5.50;;;;;;;;;;5015905;28;20440;-71
2021/11/19 03:00:46;;;;;;;6.38;5.25;;;;;;;;;;5015901;28;20033;-71
2021/11/19 03:03:11;;;;;;;5.50;3.83;;;;;;;;;;5016375;28;20053;-72
2021/11/19 03:05:39;;;;;;;7.78;5.80;;;;;;;;;;5016545;28;20037;-73
2021/11/19 03:08:05;;;;;;;7.72;5.63;;;;;;;;;;5016301;28;20063;-73
2021/11/19 03:10:37;;;;;;;6.10;5.35;;;;;;;;;;5016590;28;20493;-74
2021/11/19 03:13:05;;;;;;;7.25;5.03;;;;;;;;;;5016340;28;20037;-73
2021/11/19 03:15:32;;;;;;;6.65;5.25;;;;;;;;;;5016535;28;20034;-73
2021/11/19 03:17:58;;;;;;;7.55;5.53;;;;;;;;;;5016567;28;20037;-73
2021/11/19 03:20:24;;;;;;;6.18;4.90;;;;;;;;;;5016715;28;20025;-73
2021/11/19 03:23:00;;;;;;;4.22;3.72;;;;;;;;;;5016341;28;20036;-72
2021/11/19 03:25:27;;;;;;;6.13;5.40;;;;;;;;;;5016452;28;20478;-71
2021/11/19 03:27:58;;;;;;;5.22;4.72;;;;;;;;;;5015977;28;20029;-71
2021/11/19 03:30:28;;;;;;;4.93;4.38;;;;;;;;;;4999181;28;20037;-71
2021/11/19 03:32:54;;;;;;;8.68;5.35;;;;;;;;;;5016048;28;20044;-70
2021/11/19 03:35:21;;;;;;;5.47;4.15;;;;;;;;;;5015416;28;20041;-70
2021/11/19 03:37:47;;;;;;;5.65;5.15;;;;;;;;;;5018868;28;20068;-71
2021/11/19 03:40:14;;;;;;;7.10;5.22;;;;;;;;;;5052986;28;20033;-72
2021/11/19 03:42:40;;;;;;;5.88;5.05;;;;;;;;;;5053334;28;20017;-72
2021/11/19 03:45:08;;;;;;;5.80;5.03;;;;;;;;;;5053071;28;20033;-72
2021/11/19 03:47:39;;;;;;;6.03;5.43;;;;;;;;;;5035437;28;20032;-72
2021/11/19 03:50:07;;;;;;;6.35;4.35;;;;;;;;;;5035501;28;20141;-73
2021/11/19 03:52:36;;;;;;;8.23;5.45;;;;;;;;;;5035260;28;20460;-73
2021/11/19 03:55:07;;;;;;;4.30;3.90;;;;;;;;;;5053070;28;20116;-73
2021/11/19 03:57:33;;;;;;;5.20;4.70;;;;;;;;;;5032929;28;20036;-73
2021/11/19 03:59:59;;;;;;;5.00;4.20;;;;;;;;;;5053202;28;20025;-73
2021/11/19 04:02:27;;;;;;;6.15;5.55;;;;;;;;;;5035732;28;20037;-72
2021/11/19 04:04:54;;;;;;;5.82;5.13;;;;;;;;;;5036332;28;20075;-72
2021/11/19 04:07:20;;;;;;;5.22;4.72;;;;;;;;;;5035982;28;20029;-72
2021/11/19 04:09:48;;;;;;;5.90;4.78;;;;;;;;;;5035714;28;20063;-71
2021/11/19 04:12:15;;;;;;;5.15;4.68;;;;;;;;;;5030710;28;20361;-75
2021/11/19 04:14:40;;;;;;;5.38;4.82;;;;;;;;;;5053270;28;20024;-71
2021/11/19 04:17:06;;;;;;;4.78;4.38;;;;;;;;;;5053245;28;20108;-73
2021/11/19 04:19:32;;;;;;;5.07;4.57;;;;;;;;;;5032535;28;20037;-73
2021/11/19 04:21:59;;;;;;;4.05;3.70;;;;;;;;;;5053641;28;20501;-74
2021/11/19 04:24:28;;;;;;;5.18;4.75;;;;;;;;;;5035201;28;20025;-74
2021/11/19 04:26:55;;;;;;;5.50;4.68;;;;;;;;;;5018784;28;20040;-74
2021/11/19 04:29:21;;;;;;;4.05;3.65;;;;;;;;;;5017919;28;20410;-74
2021/11/19 04:32:09;;;;;;;3.83;3.40;;;;;;;;;;5052421;28;20037;-72
2021/11/19 04:34:36;;;;;;;4.25;3.85;;;;;;;;;;5042082;28;20033;-72
2021/11/19 04:37:02;;;;;;;3.97;3.67;;;;;;;;;;5035536;28;20029;-73
2021/11/19 04:39:29;;;;;;;4.57;3.63;;;;;;;;;;5035289;28;20373;-72
2021/11/19 04:41:55;;;;;;;6.22;5.22;;;;;;;;;;5053119;28;20039;-74
2021/11/19 04:44:20;;;;;;;5.38;4.85;;;;;;;;;;5067708;28;20079;-73
2021/11/19 04:46:48;;;;;;;4.32;3.95;;;;;;;;;;5035023;28;20537;-73
2021/11/19 04:49:14;;;;;;;4.95;3.78;;;;;;;;;;5035088;28;20037;-72
2021/11/19 04:51:41;;;;;;;4.15;3.80;;;;;;;;;;5034858;28;20473;-72
2021/11/19 04:54:10;;;;;;;5.22;4.40;;;;;;;;;;5018941;28;20120;-73
2021/11/19 04:56:38;;;;;;;4.15;3.75;;;;;;;;;;5035278;28;20033;-72
2021/11/19 04:59:03;;;;;;;4.32;3.92;;;;;;;;;;5053031;28;20084;-72
2021/11/19 05:01:32;;;;;;;4.90;4.32;;;;;;;;;;5035086;28;20060;-72
2021/11/19 05:04:05;;;;;;;4.13;3.83;;;;;;;;;;5053173;28;20045;-71
2021/11/19 05:06:31;;;;;;;4.95;4.55;;;;;;;;;;5035041;28;20079;-72
2021/11/19 05:08:59;;;;;;;3.88;3.58;;;;;;;;;;5034870;28;20036;-72
2021/11/19 05:11:29;;;;;;;4.90;4.47;;;;;;;;;;5034810;28;20481;-70
2021/11/19 05:13:55;;;;;;;4.72;4.32;;;;;;;;;;5035344;28;20044;-73
2021/11/19 05:16:21;;;;;;;2.80;2.60;;;;;;;;;;5018644;28;20045;-73
2021/11/19 05:18:48;;;;;;;4.55;4.15;;;;;;;;;;5035005;28;20079;-73
2021/11/19 05:21:15;;;;;;;3.53;3.22;;;;;;;;;;5053286;28;20120;-74
2021/11/19 05:23:41;;;;;;;3.50;3.20;;;;;;;;;;5035085;28;20052;-74
2021/11/19 05:26:07;;;;;;;3.70;3.40;;;;;;;;;;5052910;28;20485;-73
2021/11/19 05:28:33;;;;;;;4.97;4.45;;;;;;;;;;5034866;28;20476;-73
2021/11/19 05:31:01;;;;;;;4.35;4.00;;;;;;;;;;5034290;28;20049;-73
2021/11/19 05:33:28;;;;;;;5.00;4.38;;;;;;;;;;5035036;28;20407;-73
2021/11/19 05:35:54;;;;;;;3.92;3.53;;;;;;;;;;5035273;28;20044;-73
2021/11/19 05:38:21;;;;;;;4.47;4.18;;;;;;;;;;5052338;28;20041;-72
2021/11/19 05:40:47;;;;;;;4.25;3.85;;;;;;;;;;5038475;28;20533;-72
2021/11/19 05:43:13;;;;;;;5.35;4.70;;;;;;;;;;5038416;28;20099;-72
2021/11/19 05:45:57;;;;;;;5.20;4.70;;;;;;;;;;5056729;28;20044;-72
2021/11/19 05:48:30;;;;;;;5.95;4.63;;;;;;;;;;5038615;28;20137;-72
2021/11/19 05:50:56;;;;;;;4.30;3.75;;;;;;;;;;5038337;28;20124;-72
2021/11/19 05:53:21;;;;;;;4.30;3.90;;;;;;;;;;5056213;28;20029;-72
2021/11/19 05:55:48;;;;;;;4.55;3.67;;;;;;;;;;5038428;28;20095;-73
2021/11/19 05:58:15;;;;;;;5.50;4.47;;;;;;;;;;5038351;28;20461;-72
2021/11/19 06:00:43;;;;;;;5.13;4.70;;;;;;;;;;5055963;28;20548;-72
2021/11/19 06:03:25;;;;;;;4.25;3.88;;;;;;;;;;5038235;28;20031;-72
2021/11/19 06:06:09;;;;;;;4.30;3.90;;;;;;;;;;5056626;28;20087;-72
2021/11/19 06:08:57;;;;;;;4.45;4.05;;;;;;;;;;5056555;28;20044;-72
2021/11/19 06:11:24;;;;;;;4.88;4.38;;;;;;;;;;5055904;28;20429;-72
2021/11/19 06:13:53;;;;;;;4.43;3.80;;;;;;;;;;5037864;28;20040;-72
2021/11/19 06:16:22;;;;;;;4.50;4.03;;;;;;;;;;5055793;28;20040;-73
2021/11/19 06:18:49;;;;;;;4.65;4.25;;;;;;;;;;5055498;28;20033;-73
2021/11/19 06:21:21;;;;;;;4.47;4.05;;;;;;;;;;5037896;28;20257;-72
2021/11/19 06:23:48;;;;;;;4.30;4.00;;;;;;;;;;5037725;28;20397;-72
2021/11/19 06:26:15;;;;;;;4.22;3.88;;;;;;;;;;5037693;28;20484;-72
2021/11/19 06:28:47;;;;;;;4.55;4.15;;;;;;;;;;5037977;28;20036;-73
2021/11/19 06:31:15;;;;;;;4.80;4.30;;;;;;;;;;5037738;28;20036;-75
2021/11/19 06:33:41;;;;;;;4.53;4.05;;;;;;;;;;5055582;28;20033;-74
2021/11/19 06:36:07;;;;;;;5.00;4.50;;;;;;;;;;5021207;28;20496;-73
2021/11/19 06:38:33;;;;;;;3.80;3.45;;;;;;;;;;5036839;28;20048;-71
2021/11/19 06:41:04;;;;;;;4.47;3.95;;;;;;;;;;5021853;28;20111;-70
2021/11/19 06:43:50;;;;;;;4.25;3.85;;;;;;;;;;5054874;28;20393;-71
2021/11/19 06:46:34;;;;;;;4.30;3.90;;;;;;;;;;5055391;28;20516;-71
2021/11/19 06:49:15;;;;;;;4.72;4.28;;;;;;;;;;5054884;28;20127;-71
2021/11/19 06:51:56;;;;;;;3.72;3.45;;;;;;;;;;5055032;28;20144;-71
2021/11/19 06:54:56;;;;;;;5.95;4.68;;;;;;;;;;4974162;28;20133;-71
2021/11/19 06:57:36;;;;;;;4.75;4.35;;;;;;;;;;5046552;28;20048;-71
2021/11/19 07:00:07;;;;;;;4.35;3.97;;;;;;;;;;5036868;28;20041;-71
2021/11/19 07:02:33;;;;;;;4.18;3.88;;;;;;;;;;5036913;28;20116;-71
2021/11/19 07:04:58;;;;;;;4.75;4.30;;;;;;;;;;5054566;28;20109;-71
2021/11/19 07:07:24;;;;;;;4.53;4.07;;;;;;;;;;5036712;28;20033;-71
2021/11/19 07:09:50;;;;;;;5.15;4.68;;;;;;;;;;5036506;28;20025;-71
2021/11/19 07:12:18;;;;;;;5.55;3.53;;;;;;;;;;5036658;28;20037;-71
2021/11/19 07:15:06;;;;;;;6.38;4.70;;;;;;;;;;5036608;28;20449;-71
2021/11/19 07:17:32;;;;;;;4.80;4.35;;;;;;;;;;5036304;28;20396;-70
2021/11/19 07:19:58;;;;;;;4.72;4.28;;;;;;;;;;5036401;28;20033;-71
2021/11/19 07:22:24;;;;;;;4.22;3.40;;;;;;;;;;5036714;28;20063;-71
2021/11/19 07:25:00;;;;;;;4.32;3.90;;;;;;;;;;5036521;28;20473;-71
2021/11/19 07:27:25;;;;;;;4.03;3.65;;;;;;;;;;5036440;28;20032;-70
2021/11/19 07:29:51;;;;;;;4.95;3.60;;;;;;;;;;5036430;28;20092;-71
2021/11/19 07:32:36;;;;;;;4.68;3.90;;;;;;;;;;5054664;28;20037;-71
2021/11/19 07:35:24;;;;;;;4.78;4.07;;;;;;;;;;5025503;28;20501;-71
2021/11/19 07:38:12;;;;;;;4.72;3.53;;;;;;;;;;5035957;28;20102;-71
2021/11/19 07:40:52;;;;;;;4.37;4.00;;;;;;;;;;5036110;28;20043;-71
2021/11/19 07:43:27;;;;;;;4.50;4.05;;;;;;;;;;5036419;28;20272;-71
2021/11/19 07:46:12;;;;;;;4.93;4.20;;;;;;;;;;5036329;28;20033;-71
2021/11/19 07:48:44;;;;;;;5.65;3.65;;;;;;;;;;5035824;28;20419;-71
2021/11/19 07:51:12;;;;;;;7.07;4.15;;;;;;;;;;5036264;28;20039;-71
2021/11/19 07:53:38;;;;;;;6.82;5.03;;;;;;;;;;5036193;28;20071;-71
2021/11/19 07:56:04;;;;;;;6.88;4.82;;;;;;;;;;5034565;28;20088;-71
2021/11/19 07:58:30;;;;;;;7.35;4.25;;;;;;;;;;5035335;28;20028;-71
2021/11/19 08:00:56;;;;;;;3.90;3.15;;;;;;;;;;5053477;28;20044;-70
2021/11/19 08:03:21;;;;;;;5.95;5.00;;;;;;;;;;5034991;28;20029;-71
2021/11/19 08:05:48;;;;;;;7.53;5.68;;;;;;;;;;5035617;28;20137;-71
2021/11/19 08:08:26;;;;;;;8.68;6.25;;;;;;;;;;5035661;28;20043;-70
2021/11/19 08:11:00;;;;;;;6.75;4.82;;;;;;;;;;5035648;28;20052;-70
2021/11/19 08:13:27;;;;;;;8.27;6.75;;;;;;;;;;5035561;28;20041;-71
2021/11/19 08:15:53;;;;;;;12.32;6.47;;;;;;;;;;5035281;28;20042;-71
2021/11/19 08:18:24;;;;;;;10.00;5.95;;;;;;;;;;5035363;28;20037;-71
2021/11/19 08:20:51;;;;;;;11.25;7.50;;;;;;;;;;5035268;28;20043;-70
2021/11/19 08:23:24;;;;;;;6.28;4.15;;;;;;;;;;5053292;28;20482;-71
2021/11/19 08:25:50;;;;;;;4.70;2.67;;;;;;;;;;5035455;28;20044;-71
2021/11/19 08:28:17;;;;;;;16.35;8.38;;;;;;;;;;5053365;28;20512;-71
2021/11/19 08:30:45;;;;;;;19.42;9.80;;;;;;;;;;5053199;28;20037;-71
2021/11/19 08:33:11;;;;;;;19.02;9.77;;;;;;;;;;5053321;28;20028;-71
2021/11/19 08:35:40;;;;;;;21.15;11.07;;;;;;;;;;5053098;28;20032;-71
2021/11/19 08:38:06;;;;;;;18.50;9.82;;;;;;;;;;5052530;28;20037;-71
2021/11/19 08:40:32;;;;;;;5.03;3.38;;;;;;;;;;5053028;28;20091;-71
2021/11/19 08:42:57;;;;;;;20.48;11.55;;;;;;;;;;5035318;28;20039;-71
2021/11/19 08:45:24;;;;;;;18.85;9.32;;;;;;;;;;5053048;28;20033;-71
2021/11/19 08:47:51;;;;;;;16.88;8.90;;;;;;;;;;5053006;28;20029;-71
2021/11/19 08:50:18;;;;;;;16.67;8.40;;;;;;;;;;5035055;28;20076;-71
2021/11/19 08:52:44;;;;;;;17.20;10.13;;;;;;;;;;5053053;28;20436;-71
2021/11/19 08:55:10;;;;;;;22.92;12.07;;;;;;;;;;5052910;28;20033;-71
2021/11/19 08:57:36;;;;;;;19.85;10.23;;;;;;;;;;5052768;28;20484;-71
2021/11/19 09:00:03;;;;;;;16.08;8.73;;;;;;;;;;5052728;28;20048;-71
2021/11/19 09:02:29;;;;;;;18.85;10.35;;;;;;;;;;5052900;28;20021;-71
2021/11/19 09:04:55;;;;;;;13.13;6.65;;;;;;;;;;5052627;28;20037;-71
2021/11/19 09:07:20;;;;;;;22.23;11.57;;;;;;;;;;5052772;28;20025;-71
2021/11/19 09:09:46;;;;;;;14.57;8.23;;;;;;;;;;5052191;28;20033;-71
2021/11/19 09:12:12;;;;;;;19.20;11.27;;;;;;;;;;5052688;28;20037;-71
2021/11/19 09:14:38;;;;;;;17.65;10.30;;;;;;;;;;5037899;28;20045;-71
2021/11/19 09:17:03;;;;;;;17.20;9.98;;;;;;;;;;5056707;28;20036;-71
2021/11/19 09:19:32;;;;;;;17.80;9.93;;;;;;;;;;5056567;28;20041;-71
2021/11/19 09:22:13;;;;;;;17.13;9.55;;;;;;;;;;5056751;28;20032;-70
2021/11/19 09:24:39;;;;;;;19.75;10.82;;;;;;;;;;5056683;28;20029;-71
2021/11/19 09:27:10;;;;;;;18.80;11.00;;;;;;;;;;5056471;28;20017;-70
2021/11/19 09:29:38;;;;;;;18.08;10.45;;;;;;;;;;5038404;28;20385;-70
2021/11/19 09:32:04;;;;;;;20.85;10.70;;;;;;;;;;5056358;28;20039;-70
2021/11/19 09:34:31;;;;;;;22.23;12.32;;;;;;;;;;5056306;28;20075;-71
2021/11/19 09:36:57;;;;;;;19.90;10.90;;;;;;;;;;5056217;28;20469;-70
2021/11/19 09:39:26;;;;;;;14.00;8.27;;;;;;;;;;5055629;28;20072;-70
2021/11/19 09:41:56;;;;;;;18.17;10.05;;;;;;;;;;5056157;28;20021;-70
2021/11/19 09:44:40;;;;;;;17.80;10.40;;;;;;;;;;5056076;28;20037;-71
2021/11/19 09:47:22;;;;;;;18.67;10.00;;;;;;;;;;5056205;28;20439;-71
2021/11/19 09:50:03;;;;;;;19.52;10.98;;;;;;;;;;5056132;28;20075;-70
2021/11/19 09:52:53;;;;;;;18.58;11.18;;;;;;;;;;5056012;28;20071;-70
2021/11/19 09:55:31;;;;;;;12.77;8.65;;;;;;;;;;5038110;28;20091;-70
2021/11/19 09:58:15;;;;;;;14.10;9.27;;;;;;;;;;5055980;28;20036;-70
2021/11/19 10:00:54;;;;;;;21.38;12.27;;;;;;;;;;5038159;28;20047;-71
2021/11/19 10:03:21;;;;;;;16.73;10.20;;;;;;;;;;5055989;28;20072;-70
2021/11/19 10:05:52;;;;;;;16.90;9.68;;;;;;;;;;5037637;28;20511;-70
2021/11/19 10:08:36;;;;;;;15.73;8.60;;;;;;;;;;5055930;28;20439;-70
2021/11/19 10:11:05;;;;;;;16.35;9.27;;;;;;;;;;5055873;28;20120;-70
2021/11/19 10:13:54;;;;;;;22.00;11.77;;;;;;;;;;5038026;28;20032;-70
2021/11/19 10:16:29;;;;;;;17.85;10.75;;;;;;;;;;5017895;28;20124;-70
2021/11/19 10:19:10;;;;;;;13.75;8.50;;;;;;;;;;5055555;28;20041;-70
2021/11/19 10:21:54;;;;;;;14.48;9.10;;;;;;;;;;5055633;28;20047;-71
2021/11/19 10:24:20;;;;;;;16.80;9.85;;;;;;;;;;5054902;28;20401;-70
2021/11/19 10:26:45;;;;;;;20.40;11.32;;;;;;;;;;5055079;28;20037;-70
2021/11/19 10:29:43;;;;;;;17.52;9.85;;;;;;;;;;5055248;28;20106;-69
2021/11/19 10:32:10;;;;;;;19.63;11.57;;;;;;;;;;5034726;28;20099;-70
2021/11/19 10:34:56;;;;;;;21.00;11.75;;;;;;;;;;5037490;28;20033;-71
2021/11/19 10:37:26;;;;;;;22.70;11.45;;;;;;;;;;5054760;28;20072;-72
2021/11/19 10:40:10;;;;;;;19.95;10.48;;;;;;;;;;5054962;28;20041;-71
2021/11/19 10:42:40;;;;;;;15.68;8.60;;;;;;;;;;5055041;28;20493;-71
2021/11/19 10:45:23;;;;;;;15.40;9.50;;;;;;;;;;5055084;28;20063;-71
2021/11/19 10:47:49;;;;;;;16.35;9.82;;;;;;;;;;5055064;28;20101;-71
2021/11/19 10:50:36;;;;;;;14.65;8.43;;;;;;;;;;5037311;28;20044;-71
2021/11/19 10:53:01;;;;;;;15.55;8.57;;;;;;;;;;5054886;28;20045;-71
2021/11/19 10:55:26;;;;;;;13.18;8.63;;;;;;;;;;5055002;28;20416;-71
2021/11/19 10:58:14;;;;;;;11.85;7.35;;;;;;;;;;5054830;28;20059;-71
2021/11/19 11:00:42;;;;;;;11.05;7.22;;;;;;;;;;5036612;28;20370;-71
2021/11/19 11:03:15;;;;;;;11.75;6.22;;;;;;;;;;5054736;28;20033;-71
2021/11/19 11:05:42;;;;;;;9.50;5.55;;;;;;;;;;5054782;28;20551;-71
2021/11/19 11:08:13;;;;;;;8.98;6.22;;;;;;;;;;5054634;28;20124;-71
2021/11/19 11:10:44;;;;;;;9.43;5.80;;;;;;;;;;5054557;28;20033;-71
2021/11/19 11:13:25;;;;;;;9.48;5.13;;;;;;;;;;5054576;28;20037;-71
2021/11/19 11:15:56;;;;;;;7.15;5.57;;;;;;;;;;5054641;28;20048;-71
2021/11/19 11:18:29;;;;;;;5.90;5.40;;;;;;;;;;5052478;28;20123;-71
2021/11/19 11:20:57;;;;;;;7.43;5.38;;;;;;;;;;5036601;28;20064;-71
2021/11/19 11:23:29;;;;;;;5.65;4.68;;;;;;;;;;5054445;28;20415;-71
2021/11/19 11:26:04;;;;;;;5.68;5.00;;;;;;;;;;5054331;28;20037;-71
2021/11/19 11:28:38;;;;;;;4.93;4.43;;;;;;;;;;5054080;28;20037;-71
2021/11/19 11:31:22;;;;;;;4.72;4.13;;;;;;;;;;5054260;28;20044;-71
2021/11/19 11:33:59;;;;;;;5.03;4.60;;;;;;;;;;5054167;28;20037;-71
2021/11/19 11:36:47;;;;;;;4.53;4.13;;;;;;;;;;5053194;28;20060;-71
2021/11/19 11:39:15;;;;;;;4.55;4.05;;;;;;;;;;5053838;28;20053;-71
2021/11/19 11:41:47;;;;;;;4.30;3.90;;;;;;;;;;5054034;28;20037;-71
2021/11/19 11:44:17;;;;;;;4.10;3.70;;;;;;;;;;5036206;28;20033;-71
2021/11/19 11:46:42;;;;;;;4.90;4.30;;;;;;;;;;5053989;28;20021;-71
2021/11/19 11:49:13;;;;;;;4.38;4.00;;;;;;;;;;5053828;28;20431;-71
2021/11/19 11:51:38;;;;;;;;;;;;;;;;;;5036543;28;20045;-71
2021/11/19 11:54:16;;;;;;;3.53;3.17;;;;;;;;;;5053845;28;19904;-71
2021/11/19 11:56:44;;;;;;;3.78;3.47;;;;;;;;;;5053475;28;20068;-71
2021/11/19 11:59:38;;;;;;;4.20;3.78;;;;;;;;;;5053679;28;20033;-71
2021/11/19 12:02:18;;;;;;;4.28;3.92;;;;;;;;;;4965449;28;20047;-71
2021/11/19 12:04:51;;;;;;;4.50;4.10;;;;;;;;;;5053897;28;20398;-71
2021/11/19 12:07:36;;;;;;;4.57;3.60;;;;;;;;;;5053682;28;20029;-72
2021/11/19 12:10:14;;;;;;;3.85;3.53;;;;;;;;;;5053541;28;20041;-72
2021/11/19 12:12:41;;;;;;;3.90;3.47;;;;;;;;;;5053504;28;20040;-72
2021/11/19 12:15:13;;;;;;;3.70;3.40;;;;;;;;;;5053366;28;20029;-73
2021/11/19 12:17:41;;;;;;;3.38;2.75;;;;;;;;;;5053220;28;20033;-72
2021/11/19 12:20:07;;;;;;;5.80;3.63;;;;;;;;;;5053234;28;20436;-73
2021/11/19 12:22:41;;;;;;;4.43;3.42;;;;;;;;;;5053332;28;20036;-73
2021/11/19 12:25:22;;;;;;;3.97;3.08;;;;;;;;;;5053279;28;20037;-73
2021/11/19 12:27:51;;;;;;;3.65;3.35;;;;;;;;;;5018999;28;20029;-72
2021/11/19 12:30:25;;;;;;;5.03;3.67;;;;;;;;;;5053201;28;20029;-73
2021/11/19 12:33:03;;;;;;;4.43;3.45;;;;;;;;;;5035421;28;20051;-73
2021/11/19 12:35:36;;;;;;;4.20;3.78;;;;;;;;;;5035405;28;20037;-73
2021/11/19 12:38:12;;;;;;;3.70;3.40;;;;;;;;;;5034952;28;20059;-73
2021/11/19 12:40:44;;;;;;;4.22;3.50;;;;;;;;;;5052941;28;20040;-73
2021/11/19 12:43:28;;;;;;;4.80;3.03;;;;;;;;;;5035308;28;20052;-73
2021/11/19 12:46:09;;;;;;;2.42;2.22;;;;;;;;;;5053037;28;20576;-73
2021/11/19 12:48:56;;;;;;;3.45;2.90;;;;;;;;;;5052430;28;20067;-73
2021/11/19 12:51:27;;;;;;;4.15;3.05;;;;;;;;;;5035347;28;20071;-73
2021/11/19 12:53:58;;;;;;;4.25;3.28;;;;;;;;;;5052917;28;20048;-73
2021/11/19 12:56:38;;;;;;;6.22;4.20;;;;;;;;;;5053054;28;20049;-73
2021/11/19 12:59:12;;;;;;;5.90;3.97;;;;;;;;;;5035183;28;20067;-74
2021/11/19 13:01:51;;;;;;;6.68;3.30;;;;;;;;;;5052744;28;20477;-74
2021/11/19 13:04:29;;;;;;;5.88;3.55;;;;;;;;;;5034758;28;20037;-74
2021/11/19 13:07:07;;;;;;;6.50;4.03;;;;;;;;;;5052847;28;20033;-74
2021/11/19 13:09:54;;;;;;;7.25;4.60;;;;;;;;;;5035028;28;20088;-72
2021/11/19 13:12:33;;;;;;;7.63;4.28;;;;;;;;;;5052878;28;20452;-71
2021/11/19 13:15:14;;;;;;;6.63;4.43;;;;;;;;;;5052762;28;20043;-72
2021/11/19 13:17:54;;;;;;;8.30;4.70;;;;;;;;;;5052580;28;20037;-71
2021/11/19 13:20:38;;;;;;;5.28;3.67;;;;;;;;;;5052729;28;20037;-71
2021/11/19 13:23:22;;;;;;;4.72;3.67;;;;;;;;;;5052722;28;20029;-71
2021/11/19 13:25:48;;;;;;;6.35;4.50;;;;;;;;;;5052748;28;20037;-72
2021/11/19 13:28:33;;;;;;;8.55;5.70;;;;;;;;;;5052665;28;20033;-72
2021/11/19 13:31:17;;;;;;;10.70;4.80;;;;;;;;;;5052529;28;20179;-72
2021/11/19 13:34:03;;;;;;;7.90;4.75;;;;;;;;;;5052542;28;20068;-72
2021/11/19 13:36:46;;;;;;;6.60;4.85;;;;;;;;;;5034982;28;20037;-72
2021/11/19 13:39:26;;;;;;;7.97;4.53;;;;;;;;;;5052344;28;20440;-72
2021/11/19 13:42:04;;;;;;;7.60;4.65;;;;;;;;;;5052390;28;20071;-72
2021/11/19 13:44:48;;;;;;;9.88;5.00;;;;;;;;;;5052487;28;20029;-72
2021/11/19 13:47:24;;;;;;;7.63;5.35;;;;;;;;;;5052159;28;20039;-75
2021/11/19 13:49:52;;;;;;;9.82;6.05;;;;;;;;;;5052418;28;20041;-75
2021/11/19 13:52:22;;;;;;;8.32;4.60;;;;;;;;;;5052314;28;20037;-75
2021/11/19 13:54:47;;;;;;;9.73;5.37;;;;;;;;;;5052352;28;20037;-75
2021/11/19 13:57:19;;;;;;;10.30;5.82;;;;;;;;;;5052177;28;20647;-75
2021/11/19 13:59:50;;;;;;;7.93;5.10;;;;;;;;;;5052404;28;20037;-75
2021/11/19 14:02:21;;;;;;;8.57;5.20;;;;;;;;;;5055716;28;20041;-75
2021/11/19 14:04:55;;;;;;;7.85;5.25;;;;;;;;;;5055765;28;20034;-75
2021/11/19 14:07:23;;;;;;;5.07;4.32;;;;;;;;;;5055797;28;20531;-75
2021/11/19 14:09:48;;;;;;;7.78;5.30;;;;;;;;;;5037798;28;20035;-75
2021/11/19 14:12:19;;;;;;;7.60;5.72;;;;;;;;;;5037868;28;20396;-74
2021/11/19 14:14:46;;;;;;;7.30;5.00;;;;;;;;;;5037588;28;20048;-74
2021/11/19 14:17:22;;;;;;;7.05;4.82;;;;;;;;;;5037893;28;20481;-75
2021/11/19 14:19:59;;;;;;;6.90;4.93;;;;;;;;;;5055590;28;20048;-74
2021/11/19 14:22:38;;;;;;;7.70;4.75;;;;;;;;;;5037806;28;20485;-71
2021/11/19 14:25:14;;;;;;;6.07;5.03;;;;;;;;;;5055688;28;20660;-71
2021/11/19 14:27:42;;;;;;;7.82;5.22;;;;;;;;;;5037613;28;20040;-71
2021/11/19 14:30:17;;;;;;;6.43;5.60;;;;;;;;;;5037634;28;20083;-71
2021/11/19 14:32:45;;;;;;;8.05;5.72;;;;;;;;;;5055334;28;20041;-71
2021/11/19 14:35:17;;;;;;;6.65;5.38;;;;;;;;;;5055433;28;20080;-71
2021/11/19 14:37:43;;;;;;;5.68;4.82;;;;;;;;;;5054829;28;20033;-71
2021/11/19 14:40:20;;;;;;;8.02;6.15;;;;;;;;;;5054883;28;20118;-71
2021/11/19 14:42:46;;;;;;;7.40;5.80;;;;;;;;;;5053384;28;20095;-71
2021/11/19 14:45:23;;;;;;;6.25;5.07;;;;;;;;;;5054996;28;20033;-71
2021/11/19 14:47:53;;;;;;;9.32;6.07;;;;;;;;;;5055066;28;20037;-71
2021/11/19 14:53:38;;;;;;;5.75;4.97;;;;;;;;;;5046929;28;20033;-71
2021/11/19 14:56:07;;;;;;;5.85;4.97;;;;;;;;;;5036579;28;20036;-71
2021/11/19 14:58:35;;;;;;;5.20;4.70;;;;;;;;;;5051762;28;20074;-71
2021/11/19 15:01:04;;;;;;;6.85;5.32;;;;;;;;;;5051501;28;20116;-71
2021/11/19 15:03:35;;;;;;;5.85;5.28;;;;;;;;;;5033305;28;20045;-71
2021/11/19 15:06:13;;;;;;;5.47;4.93;;;;;;;;;;5051605;28;20039;-71